PAY7260 KLAX-KDEN
Flight info
| Callsign | PAY7260 |
|---|---|
| Flight time | 1h 36m |
| Altitude | 35000 |
| Route | OSHNN1 BEALE J146 DICEE BUMMP SSKII4 |
| Aircraft | B77L/H-SDE1E2E3FGHIJ2J3J4J5M1RWXY/LB1D1 |
Departure
| Time | 2026-05-04 22:49 |
|---|---|
| Airport | Los Angeles International Airport (KLAX) |
Arrival
| Time | 2026-05-05 00:25 |
|---|---|
| Airport | Denver International Airport (KDEN) |
| Time | Latitude | Longitude | Altitude | Speed | Heading |
|---|---|---|---|---|---|
| 2026-05-04 22:20 | 33.93332 | -118.38582 | 97 ft | 0 kts | 270° |
| 2026-05-04 22:39 | 33.93332 | -118.38565 | 99 ft | 4 kts | 271° |
| 2026-05-04 22:39 | 33.93326 | -118.38538 | 97 ft | 2 kts | 314° |
| 2026-05-04 22:39 | 33.93310 | -118.38518 | 97 ft | 4 kts | 315° |
| 2026-05-04 22:40 | 33.93305 | -118.38513 | 97 ft | 0 kts | 315° |
| 2026-05-04 22:44 | 33.93318 | -118.38520 | 97 ft | 7 kts | 338° |
| 2026-05-04 22:44 | 33.93388 | -118.38524 | 99 ft | 11 kts | 358° |
| 2026-05-04 22:44 | 33.93464 | -118.38526 | 99 ft | 11 kts | 7° |
| 2026-05-04 22:45 | 33.93540 | -118.38512 | 99 ft | 11 kts | 7° |
| 2026-05-04 22:45 | 33.93604 | -118.38366 | 98 ft | 11 kts | 83° |
| 2026-05-04 22:45 | 33.93619 | -118.38283 | 99 ft | 7 kts | 42° |
| 2026-05-04 22:46 | 33.93627 | -118.38282 | 101 ft | 0 kts | 7° |
| 2026-05-04 22:46 | 33.93628 | -118.38282 | 101 ft | 1 kts | 7° |
| 2026-05-04 22:47 | 33.93656 | -118.38282 | 103 ft | 5 kts | 358° |
| 2026-05-04 22:47 | 33.93690 | -118.38286 | 102 ft | 5 kts | 349° |
| 2026-05-04 22:47 | 33.93721 | -118.38313 | 103 ft | 7 kts | 302° |
| 2026-05-04 22:47 | 33.93726 | -118.38373 | 103 ft | 0 kts | 263° |
| 2026-05-04 22:48 | 33.93712 | -118.38512 | 101 ft | 49 kts | 263° |
| 2026-05-04 22:48 | 33.93638 | -118.39231 | 99 ft | 121 kts | 263° |
| 2026-05-04 22:48 | 33.93506 | -118.40453 | 182 ft | 166 kts | 263° |
| 2026-05-04 22:49 | 33.93375 | -118.41840 | 837 ft | 170 kts | 263° |
| 2026-05-04 22:49 | 33.93231 | -118.43277 | 1604 ft | 174 kts | 261° |
| 2026-05-04 22:49 | 33.93087 | -118.44731 | 2204 ft | 187 kts | 262° |
| 2026-05-04 22:49 | 33.92836 | -118.46381 | 2397 ft | 215 kts | 245° |
| 2026-05-04 22:50 | 33.91862 | -118.47842 | 2711 ft | 234 kts | 224° |
| 2026-05-04 22:50 | 33.90679 | -118.49243 | 3480 ft | 242 kts | 228° |
| 2026-05-04 22:50 | 33.89592 | -118.50804 | 4402 ft | 246 kts | 232° |
| 2026-05-04 22:50 | 33.88511 | -118.52459 | 5213 ft | 254 kts | 233° |
| 2026-05-04 22:51 | 33.87405 | -118.54142 | 6128 ft | 254 kts | 232° |
| 2026-05-04 22:51 | 33.86053 | -118.55509 | 6926 ft | 262 kts | 207° |
| 2026-05-04 22:51 | 33.84239 | -118.55936 | 7731 ft | 273 kts | 181° |
| 2026-05-04 22:51 | 33.82353 | -118.55556 | 8511 ft | 278 kts | 171° |
| 2026-05-04 22:52 | 33.80454 | -118.55023 | 9360 ft | 281 kts | 171° |
| 2026-05-04 22:52 | 33.78541 | -118.54487 | 10257 ft | 283 kts | 171° |
| 2026-05-04 22:52 | 33.76567 | -118.53945 | 10700 ft | 303 kts | 171° |
| 2026-05-04 22:52 | 33.74417 | -118.53363 | 10910 ft | 331 kts | 171° |
| 2026-05-04 22:53 | 33.72108 | -118.52663 | 11187 ft | 351 kts | 163° |
| 2026-05-04 22:53 | 33.70000 | -118.51049 | 11823 ft | 372 kts | 137° |
| 2026-05-04 22:53 | 33.68538 | -118.48440 | 12796 ft | 383 kts | 115° |
| 2026-05-04 22:53 | 33.67645 | -118.45401 | 13702 ft | 391 kts | 110° |
| 2026-05-04 22:54 | 33.66783 | -118.42275 | 14560 ft | 398 kts | 111° |
| 2026-05-04 22:54 | 33.65874 | -118.39109 | 15470 ft | 403 kts | 112° |
| 2026-05-04 22:54 | 33.64936 | -118.35917 | 16469 ft | 408 kts | 113° |
| 2026-05-04 22:54 | 33.64260 | -118.32569 | 17229 ft | 423 kts | 97° |
| 2026-05-04 22:55 | 33.64316 | -118.28989 | 17921 ft | 436 kts | 89° |
| 2026-05-04 22:55 | 33.64458 | -118.25327 | 18631 ft | 442 kts | 92° |
| 2026-05-04 22:55 | 33.64622 | -118.21636 | 19184 ft | 448 kts | 83° |
| 2026-05-04 22:55 | 33.65658 | -118.18067 | 19679 ft | 463 kts | 60° |
| 2026-05-04 22:56 | 33.67630 | -118.14989 | 20384 ft | 468 kts | 41° |
| 2026-05-04 22:56 | 33.70182 | -118.12579 | 21022 ft | 469 kts | 33° |
| 2026-05-04 22:56 | 33.72864 | -118.10267 | 21589 ft | 478 kts | 32° |
| 2026-05-04 22:56 | 33.75581 | -118.07926 | 22198 ft | 484 kts | 32° |
| 2026-05-04 22:57 | 33.78323 | -118.05530 | 22858 ft | 490 kts | 33° |
| 2026-05-04 22:57 | 33.81085 | -118.03077 | 23526 ft | 498 kts | 33° |
| 2026-05-04 22:57 | 33.83884 | -118.00565 | 24060 ft | 505 kts | 33° |
| 2026-05-04 22:57 | 33.86716 | -117.98011 | 24508 ft | 513 kts | 33° |
| 2026-05-04 22:58 | 33.89591 | -117.95418 | 25037 ft | 520 kts | 33° |
| 2026-05-04 22:58 | 33.92503 | -117.92785 | 25574 ft | 526 kts | 34° |
| 2026-05-04 22:58 | 33.95438 | -117.90104 | 26022 ft | 535 kts | 34° |
| 2026-05-04 22:58 | 33.98418 | -117.87372 | 26444 ft | 543 kts | 34° |
| 2026-05-04 22:59 | 34.01453 | -117.84591 | 26876 ft | 551 kts | 34° |
| 2026-05-04 22:59 | 34.04521 | -117.81780 | 27342 ft | 557 kts | 34° |
| 2026-05-04 22:59 | 34.07624 | -117.78936 | 27775 ft | 564 kts | 35° |
| 2026-05-04 22:59 | 34.10632 | -117.75812 | 28171 ft | 574 kts | 45° |
| 2026-05-04 23:00 | 34.13237 | -117.72131 | 28573 ft | 581 kts | 53° |
| 2026-05-04 23:00 | 34.15691 | -117.68218 | 29008 ft | 587 kts | 54° |
| 2026-05-04 23:00 | 34.18151 | -117.64255 | 29451 ft | 594 kts | 54° |
| 2026-05-04 23:00 | 34.20687 | -117.60293 | 29946 ft | 598 kts | 53° |
| 2026-05-04 23:01 | 34.23300 | -117.56354 | 30437 ft | 602 kts | 52° |
| 2026-05-04 23:01 | 34.25947 | -117.52447 | 31050 ft | 600 kts | 51° |
| 2026-05-04 23:01 | 34.28591 | -117.48548 | 31641 ft | 600 kts | 52° |
| 2026-05-04 23:01 | 34.31226 | -117.44631 | 31972 ft | 604 kts | 53° |
| 2026-05-04 23:02 | 34.33883 | -117.40658 | 32269 ft | 609 kts | 53° |
| 2026-05-04 23:02 | 34.36517 | -117.36710 | 32734 ft | 610 kts | 53° |
| 2026-05-04 23:02 | 34.39208 | -117.32674 | 33311 ft | 608 kts | 54° |
| 2026-05-04 23:02 | 34.41824 | -117.28751 | 33839 ft | 606 kts | 54° |
| 2026-05-04 23:03 | 34.44475 | -117.24770 | 34242 ft | 607 kts | 54° |
| 2026-05-04 23:03 | 34.47119 | -117.20797 | 34710 ft | 606 kts | 54° |
| 2026-05-04 23:03 | 34.49800 | -117.16762 | 34965 ft | 608 kts | 54° |
| 2026-05-04 23:03 | 34.52424 | -117.12809 | 34931 ft | 612 kts | 54° |
| 2026-05-04 23:04 | 34.57778 | -117.04832 | 34933 ft | 605 kts | 52° |
| 2026-05-04 23:04 | 34.63201 | -116.96986 | 34915 ft | 602 kts | 52° |
| 2026-05-04 23:05 | 34.68535 | -116.89249 | 34938 ft | 602 kts | 52° |
| 2026-05-04 23:05 | 34.73891 | -116.81412 | 34914 ft | 603 kts | 52° |
| 2026-05-04 23:06 | 34.79259 | -116.73528 | 34914 ft | 606 kts | 52° |
| 2026-05-04 23:06 | 34.84635 | -116.65625 | 34935 ft | 607 kts | 52° |
| 2026-05-04 23:07 | 34.90171 | -116.57815 | 34926 ft | 610 kts | 49° |
| 2026-05-04 23:07 | 34.95949 | -116.50245 | 34885 ft | 610 kts | 47° |
| 2026-05-04 23:08 | 35.01729 | -116.42668 | 34867 ft | 610 kts | 48° |
| 2026-05-04 23:08 | 35.07442 | -116.35031 | 34870 ft | 609 kts | 49° |
| 2026-05-04 23:09 | 35.13122 | -116.27361 | 34852 ft | 608 kts | 49° |
| 2026-05-04 23:09 | 35.18791 | -116.19695 | 34849 ft | 608 kts | 49° |
| 2026-05-04 23:10 | 35.24469 | -116.12018 | 34872 ft | 608 kts | 49° |
| 2026-05-04 23:10 | 35.30135 | -116.04341 | 34861 ft | 608 kts | 49° |
| 2026-05-04 23:11 | 35.35788 | -115.96665 | 34869 ft | 607 kts | 49° |
| 2026-05-04 23:11 | 35.41442 | -115.88966 | 34850 ft | 607 kts | 48° |
| 2026-05-04 23:12 | 35.47083 | -115.81270 | 34868 ft | 607 kts | 48° |
| 2026-05-04 23:12 | 35.52725 | -115.73554 | 34859 ft | 607 kts | 49° |
| 2026-05-04 23:13 | 35.58358 | -115.65833 | 34868 ft | 607 kts | 49° |
| 2026-05-04 23:13 | 35.63988 | -115.58097 | 34842 ft | 607 kts | 49° |
| 2026-05-04 23:14 | 35.69607 | -115.50360 | 34869 ft | 607 kts | 49° |
| 2026-05-04 23:14 | 35.74283 | -115.43906 | 34867 ft | 608 kts | 49° |
| 2026-05-04 23:15 | 35.79910 | -115.36115 | 34855 ft | 608 kts | 49° |
| 2026-05-04 23:15 | 35.85525 | -115.28317 | 34836 ft | 608 kts | 48° |
| 2026-05-04 23:16 | 35.91112 | -115.20540 | 34948 ft | 598 kts | 45° |
| 2026-05-04 23:16 | 35.93831 | -115.16744 | 34884 ft | 581 kts | 45° |
| 2026-05-04 23:16 | 35.96470 | -115.13058 | 34858 ft | 565 kts | 45° |
| 2026-05-04 23:17 | 36.01639 | -115.05842 | 34888 ft | 565 kts | 45° |
| 2026-05-04 23:17 | 36.06933 | -114.98447 | 34758 ft | 584 kts | 48° |
| 2026-05-04 23:18 | 36.12372 | -114.90804 | 34791 ft | 600 kts | 48° |
| 2026-05-04 23:18 | 36.17858 | -114.82876 | 34768 ft | 609 kts | 55° |
| 2026-05-04 23:19 | 36.19933 | -114.78358 | 34755 ft | 599 kts | 72° |
| 2026-05-04 23:19 | 36.21396 | -114.73561 | 34759 ft | 595 kts | 76° |
| 2026-05-04 23:19 | 36.24085 | -114.63874 | 34743 ft | 594 kts | 76° |
| 2026-05-04 23:20 | 36.26864 | -114.54216 | 34729 ft | 595 kts | 75° |
| 2026-05-04 23:20 | 36.29773 | -114.44606 | 34737 ft | 596 kts | 74° |
| 2026-05-04 23:21 | 36.32715 | -114.35002 | 34744 ft | 596 kts | 74° |
| 2026-05-04 23:21 | 36.35621 | -114.25435 | 34742 ft | 597 kts | 74° |
| 2026-05-04 23:22 | 36.38523 | -114.15790 | 34748 ft | 598 kts | 74° |
| 2026-05-04 23:22 | 36.41425 | -114.06111 | 34738 ft | 598 kts | 74° |
| 2026-05-04 23:23 | 36.44320 | -113.96428 | 34760 ft | 597 kts | 74° |
| 2026-05-04 23:23 | 36.47204 | -113.86750 | 34776 ft | 597 kts | 74° |
| 2026-05-04 23:24 | 36.50075 | -113.77087 | 34777 ft | 596 kts | 74° |
| 2026-05-04 23:24 | 36.52933 | -113.67424 | 34785 ft | 594 kts | 74° |
| 2026-05-04 23:25 | 36.55776 | -113.57785 | 34772 ft | 593 kts | 74° |
| 2026-05-04 23:25 | 36.58607 | -113.48152 | 34784 ft | 592 kts | 74° |
| 2026-05-04 23:26 | 36.61421 | -113.38541 | 34783 ft | 590 kts | 73° |
| 2026-05-04 23:26 | 36.64219 | -113.28942 | 34787 ft | 589 kts | 74° |
| 2026-05-04 23:27 | 36.66986 | -113.19352 | 34807 ft | 588 kts | 74° |
| 2026-05-04 23:27 | 36.69741 | -113.09764 | 34828 ft | 588 kts | 74° |
| 2026-05-04 23:28 | 36.72490 | -113.00170 | 34869 ft | 587 kts | 74° |
| 2026-05-04 23:28 | 36.75233 | -112.90573 | 34862 ft | 587 kts | 74° |
| 2026-05-04 23:29 | 36.77963 | -112.80984 | 34846 ft | 587 kts | 74° |
| 2026-05-04 23:29 | 36.80684 | -112.71391 | 34826 ft | 586 kts | 73° |
| 2026-05-04 23:30 | 36.83398 | -112.61790 | 34793 ft | 586 kts | 74° |
| 2026-05-04 23:30 | 36.86103 | -112.52186 | 34785 ft | 587 kts | 74° |
| 2026-05-04 23:31 | 36.88804 | -112.42565 | 34766 ft | 587 kts | 73° |
| 2026-05-04 23:31 | 36.91487 | -112.33013 | 34781 ft | 586 kts | 73° |
| 2026-05-04 23:32 | 36.94179 | -112.23412 | 34778 ft | 585 kts | 73° |
| 2026-05-04 23:32 | 36.96861 | -112.13811 | 34767 ft | 584 kts | 73° |
| 2026-05-04 23:33 | 36.99526 | -112.04231 | 34775 ft | 583 kts | 73° |
| 2026-05-04 23:33 | 37.02186 | -111.94633 | 34753 ft | 584 kts | 73° |
| 2026-05-04 23:34 | 37.04835 | -111.85041 | 34741 ft | 583 kts | 73° |
| 2026-05-04 23:34 | 37.07476 | -111.75448 | 34743 ft | 583 kts | 73° |
| 2026-05-04 23:35 | 37.10095 | -111.65895 | 34743 ft | 583 kts | 73° |
| 2026-05-04 23:35 | 37.12722 | -111.56282 | 34746 ft | 584 kts | 73° |
| 2026-05-04 23:36 | 37.15347 | -111.46634 | 34814 ft | 584 kts | 73° |
| 2026-05-04 23:36 | 37.17965 | -111.36983 | 34784 ft | 585 kts | 73° |
| 2026-05-04 23:37 | 37.20576 | -111.27320 | 34766 ft | 585 kts | 73° |
| 2026-05-04 23:37 | 37.23577 | -111.17808 | 34745 ft | 587 kts | 64° |
| 2026-05-04 23:38 | 37.27263 | -111.08662 | 34744 ft | 588 kts | 63° |
| 2026-05-04 23:38 | 37.30990 | -110.99537 | 34758 ft | 586 kts | 63° |
| 2026-05-04 23:39 | 37.34651 | -110.90398 | 34745 ft | 586 kts | 64° |
| 2026-05-04 23:39 | 37.38279 | -110.81207 | 34750 ft | 586 kts | 64° |
| 2026-05-04 23:40 | 37.41890 | -110.72018 | 34741 ft | 586 kts | 64° |
| 2026-05-04 23:40 | 37.45504 | -110.62813 | 34746 ft | 586 kts | 64° |
| 2026-05-04 23:41 | 37.49113 | -110.53606 | 34741 ft | 586 kts | 64° |
| 2026-05-04 23:41 | 37.52710 | -110.44400 | 34753 ft | 586 kts | 63° |
| 2026-05-04 23:42 | 37.56301 | -110.35181 | 34762 ft | 586 kts | 63° |
| 2026-05-04 23:42 | 37.59887 | -110.25942 | 34764 ft | 587 kts | 63° |
| 2026-05-04 23:43 | 37.63465 | -110.16705 | 34774 ft | 586 kts | 63° |
| 2026-05-04 23:43 | 37.67010 | -110.07521 | 34776 ft | 586 kts | 63° |
| 2026-05-04 23:44 | 37.70569 | -109.98275 | 34785 ft | 585 kts | 63° |
| 2026-05-04 23:44 | 37.74119 | -109.89025 | 34793 ft | 585 kts | 63° |
| 2026-05-04 23:45 | 37.77656 | -109.79781 | 34804 ft | 584 kts | 63° |
| 2026-05-04 23:45 | 37.81183 | -109.70535 | 34788 ft | 583 kts | 63° |
| 2026-05-04 23:46 | 37.84699 | -109.61288 | 34831 ft | 583 kts | 63° |
| 2026-05-04 23:46 | 37.88205 | -109.52038 | 34820 ft | 583 kts | 63° |
| 2026-05-04 23:47 | 37.91704 | -109.42784 | 34790 ft | 582 kts | 63° |
| 2026-05-04 23:47 | 37.95187 | -109.33539 | 34793 ft | 581 kts | 63° |
| 2026-05-04 23:48 | 37.98642 | -109.24346 | 34787 ft | 583 kts | 63° |
| 2026-05-04 23:48 | 38.02126 | -109.15045 | 34788 ft | 584 kts | 63° |
| 2026-05-04 23:49 | 38.05608 | -109.05719 | 34791 ft | 585 kts | 63° |
| 2026-05-04 23:49 | 38.09084 | -108.96382 | 34784 ft | 586 kts | 63° |
| 2026-05-04 23:50 | 38.12623 | -108.87066 | 34772 ft | 585 kts | 61° |
| 2026-05-04 23:50 | 38.16285 | -108.77840 | 34773 ft | 585 kts | 61° |
| 2026-05-04 23:51 | 38.19948 | -108.68603 | 34786 ft | 585 kts | 61° |
| 2026-05-04 23:51 | 38.23574 | -108.59351 | 34780 ft | 584 kts | 61° |
| 2026-05-04 23:52 | 38.27175 | -108.50095 | 34797 ft | 583 kts | 61° |
| 2026-05-04 23:52 | 38.30766 | -108.40844 | 34783 ft | 582 kts | 61° |
| 2026-05-04 23:53 | 38.34343 | -108.31608 | 34784 ft | 581 kts | 61° |
| 2026-05-04 23:53 | 38.37919 | -108.22348 | 34814 ft | 584 kts | 60° |
| 2026-05-04 23:54 | 38.41478 | -108.13104 | 34873 ft | 586 kts | 60° |
| 2026-05-04 23:54 | 38.45068 | -108.03750 | 34920 ft | 589 kts | 60° |
| 2026-05-04 23:55 | 38.48653 | -107.94346 | 34944 ft | 590 kts | 61° |
| 2026-05-04 23:56 | 38.54004 | -107.80138 | 34774 ft | 592 kts | 61° |
| 2026-05-04 23:56 | 38.57568 | -107.70644 | 34796 ft | 593 kts | 60° |
| 2026-05-04 23:57 | 38.61122 | -107.61161 | 34766 ft | 591 kts | 60° |
| 2026-05-04 23:57 | 38.64659 | -107.51695 | 34810 ft | 589 kts | 61° |
| 2026-05-04 23:58 | 38.68200 | -107.42259 | 34824 ft | 588 kts | 60° |
| 2026-05-04 23:58 | 38.71770 | -107.32854 | 34835 ft | 587 kts | 60° |
| 2026-05-04 23:59 | 38.75329 | -107.23448 | 34851 ft | 587 kts | 59° |
| 2026-05-04 23:59 | 38.78877 | -107.14020 | 34846 ft | 588 kts | 59° |
| 2026-05-05 00:00 | 38.82417 | -107.04572 | 34901 ft | 588 kts | 59° |
| 2026-05-05 00:00 | 38.85919 | -106.95181 | 34854 ft | 573 kts | 59° |
| 2026-05-05 00:00 | 38.87611 | -106.90624 | 34864 ft | 560 kts | 59° |
| 2026-05-05 00:01 | 38.89280 | -106.86133 | 34869 ft | 555 kts | 59° |
| 2026-05-05 00:01 | 38.90939 | -106.81674 | 34610 ft | 552 kts | 58° |
| 2026-05-05 00:01 | 38.92585 | -106.77247 | 34195 ft | 548 kts | 58° |
| 2026-05-05 00:01 | 38.94220 | -106.72843 | 33769 ft | 545 kts | 58° |
| 2026-05-05 00:02 | 38.95298 | -106.69932 | 33489 ft | 542 kts | 58° |
| 2026-05-05 00:02 | 38.96902 | -106.65592 | 33176 ft | 535 kts | 58° |
| 2026-05-05 00:02 | 38.98993 | -106.59923 | 32817 ft | 524 kts | 58° |
| 2026-05-05 00:02 | 39.00043 | -106.57074 | 32647 ft | 520 kts | 58° |
| 2026-05-05 00:03 | 39.01575 | -106.52901 | 32329 ft | 514 kts | 58° |
| 2026-05-05 00:03 | 39.03091 | -106.48756 | 32034 ft | 508 kts | 59° |
| 2026-05-05 00:03 | 39.04573 | -106.44689 | 31626 ft | 497 kts | 59° |
| 2026-05-05 00:03 | 39.06026 | -106.40704 | 31114 ft | 489 kts | 59° |
| 2026-05-05 00:04 | 39.07462 | -106.36764 | 30624 ft | 481 kts | 59° |
| 2026-05-05 00:04 | 39.08868 | -106.32903 | 30210 ft | 471 kts | 60° |
| 2026-05-05 00:04 | 39.10235 | -106.29143 | 29902 ft | 457 kts | 60° |
| 2026-05-05 00:04 | 39.11556 | -106.25507 | 29599 ft | 440 kts | 61° |
| 2026-05-05 00:05 | 39.12837 | -106.21983 | 28893 ft | 432 kts | 61° |
| 2026-05-05 00:05 | 39.14093 | -106.18527 | 28042 ft | 429 kts | 61° |
| 2026-05-05 00:05 | 39.15367 | -106.15012 | 27191 ft | 426 kts | 61° |
| 2026-05-05 00:05 | 39.16599 | -106.11609 | 26418 ft | 421 kts | 61° |
| 2026-05-05 00:06 | 39.17823 | -106.08221 | 25722 ft | 414 kts | 62° |
| 2026-05-05 00:06 | 39.19031 | -106.04873 | 25033 ft | 408 kts | 62° |
| 2026-05-05 00:06 | 39.20218 | -106.01580 | 24348 ft | 402 kts | 62° |
| 2026-05-05 00:06 | 39.21387 | -105.98337 | 23701 ft | 396 kts | 62° |
| 2026-05-05 00:07 | 39.22537 | -105.95142 | 23074 ft | 388 kts | 63° |
| 2026-05-05 00:07 | 39.23665 | -105.92005 | 22387 ft | 385 kts | 63° |
| 2026-05-05 00:07 | 39.24788 | -105.88881 | 22059 ft | 382 kts | 63° |
| 2026-05-05 00:07 | 39.25897 | -105.85790 | 21716 ft | 378 kts | 63° |
| 2026-05-05 00:08 | 39.26998 | -105.82720 | 21382 ft | 374 kts | 63° |
| 2026-05-05 00:08 | 39.28081 | -105.79695 | 21066 ft | 369 kts | 63° |
| 2026-05-05 00:08 | 39.29150 | -105.76706 | 20731 ft | 365 kts | 63° |
| 2026-05-05 00:08 | 39.30210 | -105.73742 | 20418 ft | 361 kts | 63° |
| 2026-05-05 00:09 | 39.31257 | -105.70807 | 20107 ft | 357 kts | 63° |
| 2026-05-05 00:09 | 39.32289 | -105.67913 | 19807 ft | 353 kts | 64° |
| 2026-05-05 00:09 | 39.33323 | -105.65046 | 19530 ft | 352 kts | 63° |
| 2026-05-05 00:09 | 39.34382 | -105.62151 | 19276 ft | 361 kts | 63° |
| 2026-05-05 00:10 | 39.35467 | -105.59193 | 18969 ft | 366 kts | 63° |
| 2026-05-05 00:10 | 39.36554 | -105.56222 | 18643 ft | 366 kts | 63° |
| 2026-05-05 00:10 | 39.37635 | -105.53257 | 18344 ft | 364 kts | 63° |
| 2026-05-05 00:10 | 39.38710 | -105.50304 | 18041 ft | 362 kts | 64° |
| 2026-05-05 00:11 | 39.39763 | -105.47408 | 17709 ft | 360 kts | 64° |
| 2026-05-05 00:11 | 39.40821 | -105.44493 | 17429 ft | 356 kts | 64° |
| 2026-05-05 00:11 | 39.41684 | -105.41535 | 17149 ft | 350 kts | 79° |
| 2026-05-05 00:11 | 39.41801 | -105.38450 | 16908 ft | 341 kts | 91° |
| 2026-05-05 00:12 | 39.41776 | -105.35381 | 16637 ft | 342 kts | 91° |
| 2026-05-05 00:12 | 39.41768 | -105.32305 | 16354 ft | 343 kts | 90° |
| 2026-05-05 00:12 | 39.41770 | -105.29218 | 16078 ft | 343 kts | 90° |
| 2026-05-05 00:12 | 39.41778 | -105.26124 | 15784 ft | 345 kts | 90° |
| 2026-05-05 00:13 | 39.41789 | -105.23024 | 15513 ft | 345 kts | 90° |
| 2026-05-05 00:13 | 39.41801 | -105.19925 | 15221 ft | 344 kts | 90° |
| 2026-05-05 00:13 | 39.41814 | -105.16845 | 14948 ft | 341 kts | 90° |
| 2026-05-05 00:13 | 39.41828 | -105.13794 | 14661 ft | 338 kts | 90° |
| 2026-05-05 00:14 | 39.41840 | -105.10781 | 14382 ft | 333 kts | 90° |
| 2026-05-05 00:14 | 39.41852 | -105.07807 | 14100 ft | 328 kts | 90° |
| 2026-05-05 00:14 | 39.41862 | -105.04884 | 13829 ft | 322 kts | 90° |
| 2026-05-05 00:14 | 39.41873 | -105.02017 | 13575 ft | 316 kts | 89° |
| 2026-05-05 00:15 | 39.41882 | -104.99202 | 13373 ft | 310 kts | 89° |
| 2026-05-05 00:15 | 39.41890 | -104.96441 | 13113 ft | 304 kts | 89° |
| 2026-05-05 00:15 | 39.41918 | -104.93732 | 12857 ft | 297 kts | 86° |
| 2026-05-05 00:15 | 39.42117 | -104.91157 | 12643 ft | 282 kts | 84° |
| 2026-05-05 00:16 | 39.42361 | -104.88681 | 12319 ft | 273 kts | 84° |
| 2026-05-05 00:16 | 39.42591 | -104.86274 | 12065 ft | 268 kts | 84° |
| 2026-05-05 00:16 | 39.42812 | -104.83935 | 11798 ft | 263 kts | 85° |
| 2026-05-05 00:16 | 39.43027 | -104.81572 | 11543 ft | 259 kts | 85° |
| 2026-05-05 00:17 | 39.43232 | -104.79278 | 11285 ft | 255 kts | 84° |
| 2026-05-05 00:17 | 39.43432 | -104.77025 | 11067 ft | 249 kts | 84° |
| 2026-05-05 00:17 | 39.43807 | -104.74921 | 10974 ft | 243 kts | 70° |
| 2026-05-05 00:17 | 39.44455 | -104.72875 | 10992 ft | 250 kts | 68° |
| 2026-05-05 00:18 | 39.45162 | -104.70792 | 10970 ft | 254 kts | 62° |
| 2026-05-05 00:18 | 39.46337 | -104.69103 | 10965 ft | 256 kts | 31° |
| 2026-05-05 00:18 | 39.47983 | -104.68262 | 11003 ft | 254 kts | 14° |
| 2026-05-05 00:18 | 39.49703 | -104.67689 | 10989 ft | 258 kts | 15° |
| 2026-05-05 00:19 | 39.51451 | -104.67095 | 10974 ft | 260 kts | 15° |
| 2026-05-05 00:19 | 39.53208 | -104.66520 | 10977 ft | 261 kts | 10° |
| 2026-05-05 00:19 | 39.55028 | -104.66303 | 10699 ft | 265 kts | 0° |
| 2026-05-05 00:19 | 39.56857 | -104.66303 | 10387 ft | 261 kts | 359° |
| 2026-05-05 00:20 | 39.58658 | -104.66314 | 10056 ft | 257 kts | 0° |
| 2026-05-05 00:20 | 39.60427 | -104.66304 | 9746 ft | 252 kts | 1° |
| 2026-05-05 00:20 | 39.62153 | -104.66286 | 9446 ft | 243 kts | 1° |
| 2026-05-05 00:20 | 39.63819 | -104.66267 | 9097 ft | 235 kts | 1° |
| 2026-05-05 00:21 | 39.65428 | -104.66249 | 8782 ft | 227 kts | 1° |
| 2026-05-05 00:21 | 39.66966 | -104.66232 | 8503 ft | 216 kts | 1° |
| 2026-05-05 00:21 | 39.68442 | -104.66214 | 8200 ft | 207 kts | 1° |
| 2026-05-05 00:21 | 39.69826 | -104.66200 | 7939 ft | 188 kts | 1° |
| 2026-05-05 00:22 | 39.71036 | -104.66187 | 7701 ft | 166 kts | 2° |
| 2026-05-05 00:22 | 39.72162 | -104.66173 | 7504 ft | 164 kts | 2° |
| 2026-05-05 00:22 | 39.73300 | -104.66159 | 7304 ft | 164 kts | 1° |
| 2026-05-05 00:22 | 39.74428 | -104.66147 | 7089 ft | 161 kts | 1° |
| 2026-05-05 00:23 | 39.75542 | -104.66134 | 6900 ft | 163 kts | 1° |
| 2026-05-05 00:23 | 39.76660 | -104.66122 | 6697 ft | 161 kts | 2° |
| 2026-05-05 00:23 | 39.77763 | -104.66109 | 6513 ft | 158 kts | 2° |
| 2026-05-05 00:23 | 39.78857 | -104.66095 | 6283 ft | 157 kts | 0° |
| 2026-05-05 00:24 | 39.79951 | -104.66084 | 6063 ft | 157 kts | 0° |
| 2026-05-05 00:24 | 39.81020 | -104.66068 | 5801 ft | 150 kts | 358° |
| 2026-05-05 00:24 | 39.82051 | -104.66058 | 5590 ft | 151 kts | 358° |
| 2026-05-05 00:24 | 39.83105 | -104.66042 | 5392 ft | 150 kts | 358° |
| 2026-05-05 00:25 | 39.84078 | -104.66040 | 5369 ft | 124 kts | 0° |
| 2026-05-05 00:25 | 39.84743 | -104.66029 | 5367 ft | 58 kts | 1° |
| 2026-05-05 00:25 | 39.85000 | -104.66029 | 5365 ft | 31 kts | 357° |
| 2026-05-05 00:25 | 39.85169 | -104.66073 | 5367 ft | 25 kts | 339° |
| 2026-05-05 00:26 | 39.85279 | -104.66151 | 5367 ft | 9 kts | 320° |
| 2026-05-05 00:26 | 39.85287 | -104.66166 | 5366 ft | 0 kts | 302° |
| 2026-05-05 00:27 | 39.85288 | -104.66167 | 5366 ft | 1 kts | 302° |
| 2026-05-05 00:27 | 39.85288 | -104.66209 | 5367 ft | 7 kts | 246° |
| 2026-05-05 00:27 | 39.85244 | -104.66235 | 5368 ft | 7 kts | 184° |
| 2026-05-05 00:27 | 39.85181 | -104.66238 | 5368 ft | 13 kts | 181° |
| 2026-05-05 00:28 | 39.85050 | -104.66239 | 5368 ft | 23 kts | 180° |
| 2026-05-05 00:28 | 39.84896 | -104.66242 | 5368 ft | 22 kts | 180° |
| 2026-05-05 00:28 | 39.84741 | -104.66243 | 5367 ft | 22 kts | 180° |
| 2026-05-05 00:28 | 39.84586 | -104.66244 | 5368 ft | 22 kts | 181° |
| 2026-05-05 00:29 | 39.84439 | -104.66247 | 5367 ft | 20 kts | 181° |
| 2026-05-05 00:29 | 39.84324 | -104.66248 | 5368 ft | 14 kts | 180° |
| 2026-05-05 00:29 | 39.84228 | -104.66249 | 5368 ft | 14 kts | 180° |
| 2026-05-05 00:29 | 39.84133 | -104.66249 | 5369 ft | 14 kts | 180° |
| 2026-05-05 00:30 | 39.84033 | -104.66249 | 5369 ft | 16 kts | 179° |
| 2026-05-05 00:30 | 39.83922 | -104.66249 | 5367 ft | 16 kts | 181° |
| 2026-05-05 00:30 | 39.83809 | -104.66253 | 5368 ft | 16 kts | 181° |
| 2026-05-05 00:30 | 39.83699 | -104.66255 | 5368 ft | 16 kts | 180° |
| 2026-05-05 00:31 | 39.83588 | -104.66256 | 5367 ft | 16 kts | 180° |
| 2026-05-05 00:31 | 39.83478 | -104.66257 | 5368 ft | 16 kts | 180° |
| 2026-05-05 00:31 | 39.83367 | -104.66259 | 5368 ft | 16 kts | 180° |
| 2026-05-05 00:31 | 39.83256 | -104.66260 | 5369 ft | 16 kts | 180° |
| 2026-05-05 00:32 | 39.83146 | -104.66262 | 5368 ft | 16 kts | 180° |
| 2026-05-05 00:32 | 39.83036 | -104.66264 | 5368 ft | 15 kts | 180° |
| 2026-05-05 00:32 | 39.82946 | -104.66275 | 5367 ft | 12 kts | 210° |
| 2026-05-05 00:32 | 39.82925 | -104.66376 | 5370 ft | 12 kts | 272° |
| 2026-05-05 00:33 | 39.82927 | -104.66487 | 5367 ft | 12 kts | 271° |
| 2026-05-05 00:33 | 39.82929 | -104.66598 | 5367 ft | 12 kts | 271° |
| 2026-05-05 00:33 | 39.82928 | -104.66710 | 5367 ft | 12 kts | 269° |
| 2026-05-05 00:33 | 39.82928 | -104.66821 | 5367 ft | 12 kts | 271° |
| 2026-05-05 00:34 | 39.82928 | -104.66932 | 5367 ft | 12 kts | 269° |
| 2026-05-05 00:34 | 39.82930 | -104.67043 | 5368 ft | 12 kts | 271° |
| 2026-05-05 00:34 | 39.82941 | -104.67151 | 5366 ft | 12 kts | 293° |
| 2026-05-05 00:34 | 39.82982 | -104.67249 | 5367 ft | 12 kts | 301° |
| 2026-05-05 00:35 | 39.83003 | -104.67355 | 5369 ft | 12 kts | 271° |
| 2026-05-05 00:35 | 39.83002 | -104.67429 | 5369 ft | 7 kts | 260° |
| 2026-05-05 00:35 | 39.82963 | -104.67457 | 5366 ft | 7 kts | 179° |
| 2026-05-05 00:35 | 39.82930 | -104.67458 | 5368 ft | 3 kts | 179° |
| 2026-05-05 00:36 | 39.82925 | -104.67458 | 5369 ft | 0 kts | 179° |
| 2026-05-05 00:36 | 39.82924 | -104.67458 | 5368 ft | 0 kts | 179° |